createdAt,value
2018-08-03T00:01:43.168Z,95.80
2018-08-03T00:04:14.896Z,96.00
2018-08-03T00:06:45.027Z,96.00
2018-08-03T00:09:15.127Z,96.10
2018-08-03T00:11:45.389Z,96.00
2018-08-03T00:14:15.475Z,95.90
2018-08-03T00:16:45.795Z,96.00
2018-08-03T00:19:15.905Z,96.10
2018-08-03T00:21:46.129Z,95.90
2018-08-03T00:24:16.207Z,96.20
2018-08-03T00:26:46.341Z,95.80
2018-08-03T00:29:16.457Z,95.90
2018-08-03T00:31:46.646Z,95.90
2018-08-03T00:34:16.770Z,96.00
2018-08-03T00:36:46.941Z,96.20
2018-08-03T00:39:17.494Z,96.30
2018-08-03T00:41:47.627Z,96.40
2018-08-03T00:44:17.873Z,96.50
2018-08-03T00:46:48.027Z,96.60
2018-08-03T00:49:18.248Z,96.50
2018-08-03T00:51:48.472Z,96.40
2018-08-03T00:54:19.727Z,96.50
2018-08-03T00:56:51.451Z,96.50
2018-08-03T00:59:21.651Z,96.40
2018-08-03T01:01:51.986Z,96.30
2018-08-03T01:04:22.007Z,96.50
2018-08-03T01:06:52.924Z,96.60
2018-08-03T01:09:23.526Z,96.70
2018-08-03T01:11:53.759Z,96.70
2018-08-03T01:16:53.407Z,97.00
2018-08-03T01:19:23.498Z,96.90
2018-08-03T01:21:53.494Z,96.90
2018-08-03T01:24:23.502Z,96.90
2018-08-03T01:26:53.637Z,96.90
2018-08-03T01:29:23.705Z,97.10
2018-08-03T01:34:23.289Z,96.90
2018-08-03T01:36:53.288Z,96.90
2018-08-03T01:39:28.170Z,96.80
2018-08-03T01:41:58.245Z,96.80
2018-08-03T01:44:28.338Z,97.20
2018-08-03T01:49:28.537Z,96.90
2018-08-03T01:51:59.362Z,97.00
2018-08-03T01:54:29.369Z,97.10
2018-08-03T01:56:59.540Z,97.40
2018-08-03T01:59:29.560Z,97.60
2018-08-03T02:01:59.645Z,97.40
2018-08-03T02:04:29.598Z,97.40
2018-08-03T02:06:59.655Z,97.30
2018-08-03T02:09:29.622Z,97.30
2018-08-03T02:11:59.710Z,97.30
2018-08-03T02:14:29.688Z,97.20
2018-08-03T02:17:00.747Z,97.20
2018-08-03T02:19:30.792Z,97.20
2018-08-03T02:22:00.967Z,97.30
2018-08-03T02:24:31.096Z,97.30
2018-08-03T02:27:01.159Z,97.30
2018-08-03T02:29:31.250Z,97.80
2018-08-03T02:32:02.043Z,97.40
2018-08-03T02:34:32.208Z,97.80
2018-08-03T02:37:02.328Z,97.70
2018-08-03T02:39:32.432Z,97.70
2018-08-03T02:42:02.556Z,97.70
2018-08-03T02:44:34.887Z,97.70
2018-08-03T02:47:04.966Z,97.80
2018-08-03T02:49:34.978Z,97.90
2018-08-03T02:52:04.993Z,97.80
2018-08-03T02:54:35.025Z,98.00
2018-08-03T02:57:05.102Z,98.00
2018-08-03T02:59:35.113Z,97.90
2018-08-03T03:02:05.153Z,98.00
2018-08-03T03:04:35.155Z,98.40
2018-08-03T03:09:35.254Z,99.00
2018-08-03T03:12:05.268Z,98.60
2018-08-03T03:14:35.309Z,98.70
2018-08-03T03:17:05.337Z,98.80
2018-08-03T03:19:35.651Z,99.20
2018-08-03T03:22:05.824Z,98.70
2018-08-03T03:24:35.841Z,98.60
2018-08-03T03:27:05.892Z,98.80
2018-08-03T03:29:35.942Z,98.70
2018-08-03T03:32:05.927Z,98.70
2018-08-03T03:34:36.000Z,98.80
2018-08-03T03:37:06.187Z,98.80
2018-08-03T03:39:36.266Z,98.80
2018-08-03T03:42:06.453Z,98.90
2018-08-03T03:44:36.501Z,98.90
2018-08-03T03:47:06.550Z,98.90
2018-08-03T03:49:36.615Z,98.90
2018-08-03T03:52:06.683Z,99.00
2018-08-03T03:54:36.744Z,99.10
2018-08-03T03:57:06.994Z,99.20
2018-08-03T03:59:37.007Z,99.40
2018-08-03T04:02:07.226Z,99.40
2018-08-03T04:04:37.318Z,99.60
2018-08-03T04:07:07.565Z,99.60
2018-08-03T04:09:37.567Z,99.60
2018-08-03T04:12:07.810Z,99.80
2018-08-03T04:14:37.852Z,99.80
2018-08-03T04:19:37.578Z,99.90
2018-08-03T04:22:07.630Z,99.90
2018-08-03T04:24:37.637Z,99.90
2018-08-03T04:27:07.632Z,99.90
2018-08-03T04:29:37.650Z,99.90
2018-08-03T04:32:07.689Z,99.90
2018-08-03T04:34:37.770Z,99.90
2018-08-03T04:37:07.761Z,99.90
2018-08-03T04:39:37.824Z,99.90
2018-08-03T04:42:08.538Z,99.90
2018-08-03T04:44:38.735Z,99.90
2018-08-03T04:49:44.168Z,99.90
2018-08-03T04:52:14.303Z,99.90
2018-08-03T04:54:44.579Z,99.90
2018-08-03T04:57:14.622Z,99.90
2018-08-03T04:59:44.726Z,99.90
2018-08-03T05:02:14.780Z,99.90
2018-08-03T05:04:44.835Z,99.70
2018-08-03T05:07:14.904Z,99.60
2018-08-03T05:09:45.004Z,99.10
2018-08-03T05:12:15.119Z,99.20
2018-08-03T05:14:45.224Z,98.90
2018-08-03T05:17:15.324Z,98.90
2018-08-03T05:19:45.688Z,98.50
2018-08-03T05:22:15.730Z,98.70
2018-08-03T05:24:45.815Z,98.80
2018-08-03T05:27:15.927Z,98.50
2018-08-03T05:29:45.985Z,97.60
2018-08-03T05:32:16.005Z,97.40
2018-08-03T05:34:45.960Z,97.30
2018-08-03T05:37:16.027Z,96.80
2018-08-03T05:39:46.101Z,96.80
2018-08-03T05:42:16.127Z,96.50
2018-08-03T05:44:46.153Z,96.10
2018-08-03T05:47:16.195Z,96.20
2018-08-03T05:49:46.212Z,96.00
2018-08-03T05:52:16.311Z,95.70
2018-08-03T05:54:46.505Z,95.20
2018-08-03T05:59:46.206Z,93.70
2018-08-03T06:02:16.270Z,92.70
2018-08-03T06:04:46.322Z,92.30
2018-08-03T06:07:16.349Z,91.40
2018-08-03T06:09:46.312Z,91.00
2018-08-03T06:14:46.006Z,90.00
2018-08-03T06:17:16.051Z,89.50
2018-08-03T06:19:46.065Z,89.30
2018-08-03T06:22:16.175Z,89.80
2018-08-03T06:24:46.221Z,87.80
2018-08-03T06:27:16.269Z,87.40
2018-08-03T06:29:46.320Z,87.60
2018-08-03T06:32:16.370Z,87.50
2018-08-03T06:34:46.388Z,87.40
2018-08-03T06:37:16.422Z,88.00
2018-08-03T06:39:46.436Z,87.70
2018-08-03T06:42:16.514Z,88.30
2018-08-03T06:44:46.574Z,87.30
2018-08-03T06:47:16.641Z,87.60
2018-08-03T06:52:16.451Z,86.30
2018-08-03T06:54:46.549Z,86.80
2018-08-03T06:57:16.962Z,88.10
2018-08-03T06:59:46.982Z,86.30
2018-08-03T07:02:17.044Z,84.70
2018-08-03T07:07:16.832Z,83.20
2018-08-03T07:09:46.879Z,82.80
2018-08-03T07:12:16.930Z,83.20
2018-08-03T07:14:47.017Z,82.20
2018-08-03T07:17:17.314Z,83.80
2018-08-03T07:19:47.409Z,82.90
2018-08-03T07:22:17.526Z,82.80
2018-08-03T07:24:47.579Z,81.30
2018-08-03T07:27:17.652Z,82.80
2018-08-03T07:29:47.663Z,80.40
2018-08-03T07:32:17.691Z,78.40
2018-08-03T07:34:48.193Z,78.10
2018-08-03T07:37:18.277Z,78.00
2018-08-03T07:39:48.326Z,79.00
2018-08-03T07:42:18.407Z,77.20
2018-08-03T07:44:48.503Z,77.20
2018-08-03T07:47:18.514Z,79.60
2018-08-03T07:49:48.682Z,78.70
2018-08-03T07:57:18.065Z,75.70
2018-08-03T07:59:48.087Z,76.00
2018-08-03T08:02:18.185Z,76.70
2018-08-03T08:07:17.903Z,73.30
2018-08-03T08:09:48.021Z,73.50
2018-08-03T08:12:18.130Z,73.00
2018-08-03T08:14:48.169Z,73.00
2018-08-03T08:17:18.244Z,76.00
2018-08-03T08:19:48.282Z,71.70
2018-08-03T08:22:18.405Z,70.20
2018-08-03T08:24:48.472Z,72.00
2018-08-03T08:29:48.263Z,69.80
2018-08-03T08:32:18.399Z,69.50
2018-08-03T08:34:48.474Z,68.20
2018-08-03T08:37:18.545Z,68.50
2018-08-03T08:39:48.593Z,67.70
2018-08-03T08:42:18.648Z,67.90
2018-08-03T08:44:48.735Z,67.70
2018-08-03T08:47:18.752Z,65.00
2018-08-03T08:52:18.487Z,68.00
2018-08-03T08:54:48.527Z,64.40
2018-08-03T08:57:19.044Z,63.40
2018-08-03T09:02:18.802Z,61.70
2018-08-03T09:04:48.876Z,64.00
2018-08-03T09:07:18.887Z,61.40
2018-08-03T09:09:48.955Z,64.30
2018-08-03T09:12:19.033Z,60.40
2018-08-03T09:14:49.067Z,59.90
2018-08-03T09:17:19.462Z,61.30
2018-08-03T09:19:49.526Z,60.60
2018-08-03T09:22:19.577Z,57.70
2018-08-03T09:24:49.642Z,59.80
2018-08-03T09:27:19.726Z,57.90
2018-08-03T09:29:49.784Z,56.70
2018-08-03T09:32:19.968Z,58.80
2018-08-03T09:37:19.616Z,56.10
2018-08-03T09:39:49.777Z,54.40
2018-08-03T09:42:19.760Z,54.90
2018-08-03T09:44:49.815Z,53.80
2018-08-03T09:47:19.926Z,54.60
2018-08-03T09:49:49.984Z,53.70
2018-08-03T09:52:20.092Z,51.30
2018-08-03T09:54:50.250Z,52.30
2018-08-03T09:57:20.400Z,54.50
2018-08-03T09:59:50.503Z,51.40
2018-08-03T10:02:20.550Z,52.20
2018-08-03T10:04:50.614Z,52.20
2018-08-03T10:07:20.920Z,51.10
2018-08-03T10:09:51.048Z,51.70
2018-08-03T10:12:21.070Z,53.50
2018-08-03T10:14:51.107Z,53.00
2018-08-03T10:17:21.186Z,51.10
2018-08-03T10:19:51.236Z,51.70
2018-08-03T10:22:21.317Z,51.30
2018-08-03T10:24:51.382Z,51.80
2018-08-03T10:27:21.502Z,51.90
2018-08-03T10:29:51.524Z,50.00
2018-08-03T10:32:21.578Z,51.60
2018-08-03T10:34:51.686Z,50.40
2018-08-03T10:37:21.739Z,50.40
2018-08-03T10:39:51.879Z,50.40
2018-08-03T10:42:22.029Z,51.10
2018-08-03T10:44:52.276Z,49.50
2018-08-03T10:47:22.464Z,51.30
2018-08-03T10:49:52.516Z,49.50
2018-08-03T10:52:22.610Z,52.10
2018-08-03T10:54:53.368Z,51.30
2018-08-03T10:57:23.458Z,49.60
2018-08-03T10:59:53.534Z,48.60
2018-08-03T11:02:23.638Z,50.00
2018-08-03T11:04:53.671Z,47.70
2018-08-03T11:07:23.775Z,48.50
2018-08-03T11:09:53.833Z,50.00
2018-08-03T11:12:23.992Z,49.40
2018-08-03T11:14:54.128Z,48.40
2018-08-03T11:17:24.274Z,50.30
2018-08-03T11:19:54.325Z,49.10
2018-08-03T11:22:24.523Z,48.00
2018-08-03T11:24:54.874Z,47.00
2018-08-03T11:27:24.983Z,46.70
2018-08-03T11:29:55.081Z,48.00
2018-08-03T11:32:25.193Z,48.10
2018-08-03T11:34:55.272Z,49.20
2018-08-03T11:37:25.365Z,47.20
2018-08-03T11:39:55.542Z,48.10
2018-08-03T11:42:25.621Z,47.50
2018-08-03T11:44:55.723Z,48.60
2018-08-03T11:47:25.955Z,49.30
2018-08-03T11:49:56.096Z,47.80
2018-08-03T11:52:26.362Z,47.20
2018-08-03T11:54:56.602Z,47.90
2018-08-03T11:57:26.850Z,47.40
2018-08-03T11:59:56.951Z,47.10
2018-08-03T12:02:27.313Z,48.10
2018-08-03T12:04:57.364Z,47.70
2018-08-03T12:07:27.645Z,47.60
2018-08-03T12:09:57.724Z,47.70
2018-08-03T12:12:28.350Z,48.00
2018-08-03T12:14:58.453Z,50.00
2018-08-03T12:17:28.810Z,49.70
2018-08-03T12:19:58.911Z,49.90
2018-08-03T12:22:29.242Z,47.70
2018-08-03T12:24:59.351Z,48.20
2018-08-03T12:27:29.570Z,51.10
2018-08-03T12:29:59.665Z,50.80
2018-08-03T12:32:30.413Z,49.00
2018-08-03T12:35:00.482Z,48.10
2018-08-03T12:37:30.772Z,46.40
2018-08-03T12:40:00.875Z,46.70
2018-08-03T12:42:31.090Z,46.20
2018-08-03T12:45:01.115Z,47.50
2018-08-03T12:47:31.371Z,49.60
2018-08-03T12:50:01.407Z,47.60
2018-08-03T12:52:31.574Z,48.40
2018-08-03T12:55:01.588Z,47.30
2018-08-03T12:57:31.873Z,47.30
2018-08-03T13:00:01.894Z,47.10
2018-08-03T13:02:32.332Z,47.30
2018-08-03T13:05:02.407Z,47.20
2018-08-03T13:07:32.621Z,47.20
2018-08-03T13:10:02.740Z,44.10
2018-08-03T13:15:02.458Z,45.60
2018-08-03T13:17:32.595Z,44.40
2018-08-03T13:22:32.723Z,47.60
2018-08-03T13:25:02.740Z,43.90
2018-08-03T13:27:32.893Z,44.80
2018-08-03T13:30:02.966Z,45.60
2018-08-03T13:32:33.164Z,45.00
2018-08-03T13:35:03.255Z,45.30
2018-08-03T13:40:02.983Z,44.70
2018-08-03T13:42:33.209Z,44.80
2018-08-03T13:47:33.092Z,43.00
2018-08-03T13:50:03.120Z,43.20
2018-08-03T13:52:33.305Z,42.80
2018-08-03T13:55:03.395Z,41.40
2018-08-03T13:57:33.547Z,42.90
2018-08-03T14:00:03.626Z,44.40
2018-08-03T14:02:33.844Z,42.30
2018-08-03T14:05:03.957Z,43.20
2018-08-03T14:07:34.179Z,43.10
2018-08-03T14:10:04.294Z,44.30
2018-08-03T14:12:34.465Z,41.10
2018-08-03T14:15:04.607Z,42.80
2018-08-03T14:17:34.735Z,41.30
2018-08-03T14:22:36.097Z,41.10
2018-08-03T14:25:06.267Z,40.90
2018-08-03T14:27:36.594Z,39.60
2018-08-03T14:30:08.231Z,40.70
2018-08-03T14:35:07.995Z,41.40
2018-08-03T14:37:38.148Z,44.30
2018-08-03T14:40:08.668Z,42.00
2018-08-03T14:42:38.860Z,41.00
2018-08-03T14:45:09.537Z,40.80
2018-08-03T14:47:39.698Z,40.90
2018-08-03T14:52:39.573Z,40.70
2018-08-03T14:55:09.681Z,40.70
2018-08-03T14:57:39.901Z,42.80
2018-08-03T15:00:10.223Z,42.10
2018-08-03T15:02:40.416Z,39.40
2018-08-03T15:05:10.437Z,39.20
2018-08-03T15:07:40.620Z,38.80
2018-08-03T15:10:10.720Z,41.70
2018-08-03T15:12:40.881Z,40.00
2018-08-03T15:15:10.887Z,39.80
2018-08-03T15:17:41.004Z,40.10
2018-08-03T15:20:11.518Z,40.10
2018-08-03T15:25:12.251Z,41.40
2018-08-03T15:27:42.441Z,43.10
2018-08-03T15:30:13.021Z,41.20
2018-08-03T15:35:12.754Z,40.50
2018-08-03T15:37:42.950Z,40.40
2018-08-03T15:40:13.078Z,40.40
2018-08-03T15:42:43.278Z,40.70
2018-08-03T15:45:13.306Z,40.50
2018-08-03T15:47:43.430Z,40.10
2018-08-03T15:50:13.499Z,40.70
2018-08-03T15:52:43.698Z,41.70
2018-08-03T15:55:14.294Z,39.90
2018-08-03T15:57:44.408Z,40.20
2018-08-03T16:00:14.511Z,41.10
2018-08-03T16:05:14.377Z,40.90
2018-08-03T16:07:44.387Z,41.40
2018-08-03T16:10:15.327Z,40.90
2018-08-03T16:12:45.353Z,41.00
2018-08-03T16:15:15.453Z,41.10
2018-08-03T16:17:45.475Z,41.60
2018-08-03T16:22:45.378Z,41.90
2018-08-03T16:25:15.494Z,41.20
2018-08-03T16:30:15.333Z,42.00
2018-08-03T16:32:45.420Z,42.10
2018-08-03T16:37:45.181Z,42.60
2018-08-03T16:40:15.291Z,42.20
2018-08-03T16:42:45.341Z,42.40
2018-08-03T16:45:15.435Z,42.80
2018-08-03T16:47:45.492Z,42.10
2018-08-03T16:50:15.813Z,42.20
2018-08-03T16:52:45.837Z,42.10
2018-08-03T16:55:15.885Z,41.80
2018-08-03T17:00:18.236Z,42.80
2018-08-03T17:02:49.110Z,42.00
2018-08-03T17:05:19.116Z,42.70
2018-08-03T17:07:49.171Z,42.20
2018-08-03T17:12:48.861Z,41.80
2018-08-03T17:15:18.938Z,42.90
2018-08-03T17:17:48.997Z,42.60
2018-08-03T17:20:19.102Z,43.10
2018-08-03T17:22:49.718Z,43.10
2018-08-03T17:25:19.802Z,42.70
2018-08-03T17:27:49.799Z,42.60
2018-08-03T17:30:19.817Z,42.40
2018-08-03T17:32:49.860Z,42.20
2018-08-03T17:35:20.011Z,43.30
2018-08-03T17:40:20.184Z,42.30
2018-08-03T17:42:50.249Z,41.90
2018-08-03T17:45:20.313Z,42.60
2018-08-03T17:47:50.304Z,42.60
2018-08-03T17:50:20.343Z,43.10
2018-08-03T17:55:19.972Z,43.10
2018-08-03T18:00:19.726Z,44.40
2018-08-03T18:02:49.822Z,43.80
2018-08-03T18:05:19.823Z,43.20
2018-08-03T18:07:49.929Z,44.10
2018-08-03T18:10:20.064Z,43.40
2018-08-03T18:12:50.118Z,44.70
2018-08-03T18:17:49.767Z,44.10
2018-08-03T18:20:19.834Z,44.00
2018-08-03T18:22:49.829Z,44.10
2018-08-03T18:25:19.859Z,44.00
2018-08-03T18:27:49.884Z,44.30
2018-08-03T18:30:19.899Z,44.40
2018-08-03T18:32:50.589Z,44.40
2018-08-03T18:35:20.629Z,44.60
2018-08-03T18:37:50.670Z,45.10
2018-08-03T18:40:20.746Z,45.30
2018-08-03T18:42:50.803Z,45.20
2018-08-03T18:45:20.869Z,45.30
2018-08-03T18:47:50.890Z,45.50
2018-08-03T18:50:20.926Z,46.10
2018-08-03T18:52:50.988Z,46.50
2018-08-03T18:55:21.069Z,46.80
2018-08-03T18:57:51.139Z,48.10
2018-08-03T19:00:21.243Z,49.30
2018-08-03T19:05:21.078Z,49.90
2018-08-03T19:07:51.369Z,50.80
2018-08-03T19:10:21.488Z,50.90
2018-08-03T19:12:51.518Z,52.00
2018-08-03T19:15:21.557Z,53.10
2018-08-03T19:17:51.635Z,53.20
2018-08-03T19:20:21.844Z,52.80
2018-08-03T19:22:52.204Z,54.10
2018-08-03T19:25:22.349Z,53.50
2018-08-03T19:27:52.787Z,53.60
2018-08-03T19:30:22.862Z,53.90
2018-08-03T19:32:52.925Z,54.60
2018-08-03T19:35:23.100Z,54.90
2018-08-03T19:37:53.158Z,55.20
2018-08-03T19:40:23.228Z,55.00
2018-08-03T19:42:53.349Z,55.50
2018-08-03T19:45:23.531Z,55.70
2018-08-03T19:47:53.866Z,55.70
2018-08-03T19:50:24.047Z,56.10
2018-08-03T19:52:54.139Z,56.40
2018-08-03T19:55:24.149Z,57.10
2018-08-03T19:57:54.241Z,56.90
2018-08-03T20:00:24.320Z,57.00
2018-08-03T20:02:54.542Z,57.00
2018-08-03T20:05:24.753Z,57.60
2018-08-03T20:10:24.748Z,57.70
2018-08-03T20:12:57.560Z,57.90
2018-08-03T20:15:27.653Z,58.50
2018-08-03T20:17:58.594Z,58.90
2018-08-03T20:20:28.686Z,58.80
2018-08-03T20:22:58.807Z,59.00
2018-08-03T20:25:28.916Z,58.70
2018-08-03T20:27:59.048Z,59.20
2018-08-03T20:30:29.158Z,59.20
2018-08-03T20:32:59.450Z,59.60
2018-08-03T20:35:29.703Z,59.40
2018-08-03T20:38:00.080Z,60.20
2018-08-03T20:40:30.346Z,60.00
2018-08-03T20:43:00.626Z,59.80
2018-08-03T20:45:30.749Z,60.60
2018-08-03T20:48:00.905Z,60.90
2018-08-03T20:50:31.217Z,60.00
2018-08-03T20:53:01.332Z,59.90
2018-08-03T20:55:31.474Z,60.10
2018-08-03T20:58:01.578Z,60.30
2018-08-03T21:00:31.745Z,61.10
2018-08-03T21:03:01.848Z,60.90
2018-08-03T21:05:31.941Z,60.30
2018-08-03T21:08:02.096Z,61.50
2018-08-03T21:10:32.192Z,61.60
2018-08-03T21:13:02.296Z,61.30
2018-08-03T21:15:32.322Z,60.60
2018-08-03T21:18:02.420Z,60.50
2018-08-03T21:20:33.024Z,60.90
2018-08-03T21:23:03.087Z,61.70
2018-08-03T21:25:33.187Z,62.60
2018-08-03T21:28:04.333Z,62.10
2018-08-03T21:30:34.466Z,62.60
2018-08-03T21:33:04.596Z,62.30
2018-08-03T21:35:34.641Z,61.80
2018-08-03T21:38:04.841Z,61.30
2018-08-03T21:40:34.961Z,60.30
2018-08-03T21:43:05.042Z,60.60
2018-08-03T21:45:35.187Z,60.60
2018-08-03T21:48:05.283Z,59.70
2018-08-03T21:50:35.315Z,60.60
2018-08-03T21:53:05.480Z,60.60
2018-08-03T21:58:05.365Z,61.10
2018-08-03T22:00:35.519Z,61.10
2018-08-03T22:03:05.643Z,60.90
2018-08-03T22:05:35.709Z,61.90
2018-08-03T22:08:06.033Z,61.70
2018-08-03T22:10:36.134Z,62.00
2018-08-03T22:15:35.944Z,62.20
2018-08-03T22:18:06.116Z,61.90
2018-08-03T22:20:36.224Z,61.80
2018-08-03T22:23:06.507Z,62.40
2018-08-03T22:25:36.646Z,62.10
2018-08-03T22:28:07.273Z,61.70
2018-08-03T22:30:38.130Z,62.40
2018-08-03T22:33:08.267Z,63.20
2018-08-03T22:35:38.369Z,63.00
2018-08-03T22:38:08.532Z,62.90
2018-08-03T22:40:38.683Z,62.30
2018-08-03T22:43:09.151Z,62.20
2018-08-03T22:45:39.360Z,62.90
2018-08-03T22:48:09.628Z,63.20
2018-08-03T22:53:09.718Z,63.60
2018-08-03T22:55:40.499Z,64.00
2018-08-03T22:58:10.637Z,63.80
2018-08-03T23:05:40.167Z,65.30
2018-08-03T23:08:10.514Z,65.90
2018-08-03T23:10:40.665Z,65.70
2018-08-03T23:13:10.811Z,65.20
2018-08-03T23:15:40.984Z,64.60
2018-08-03T23:18:11.353Z,65.60
2018-08-03T23:20:41.502Z,65.10
2018-08-03T23:23:11.627Z,65.30
2018-08-03T23:25:41.891Z,66.00
2018-08-03T23:28:12.029Z,66.30
2018-08-03T23:30:42.145Z,65.60
2018-08-03T23:35:42.575Z,65.90
2018-08-03T23:38:12.702Z,65.70
2018-08-03T23:40:42.859Z,66.40
2018-08-03T23:43:12.931Z,65.90
2018-08-03T23:45:43.093Z,66.50
2018-08-03T23:48:13.346Z,67.40
2018-08-03T23:50:43.547Z,66.90
2018-08-03T23:53:13.678Z,67.50
2018-08-03T23:55:43.897Z,66.70
2018-08-03T23:58:13.981Z,67.80
